sensor_id;sensor_type;location;lat;lon;timestamp;temperature;humidity
42227;DHT22;27892;52.378;13.122;2023-05-07T00:02:24;13.20;73.50
42227;DHT22;27892;52.378;13.122;2023-05-07T00:04:50;13.20;73.80
42227;DHT22;27892;52.378;13.122;2023-05-07T00:07:17;13.20;74.00
42227;DHT22;27892;52.378;13.122;2023-05-07T00:09:43;13.20;73.50
42227;DHT22;27892;52.378;13.122;2023-05-07T00:12:09;13.20;73.60
42227;DHT22;27892;52.378;13.122;2023-05-07T00:14:35;13.20;73.70
42227;DHT22;27892;52.378;13.122;2023-05-07T00:17:00;13.10;72.50
42227;DHT22;27892;52.378;13.122;2023-05-07T00:19:26;13.00;73.40
42227;DHT22;27892;52.378;13.122;2023-05-07T00:21:52;13.00;73.70
42227;DHT22;27892;52.378;13.122;2023-05-07T00:24:19;13.10;73.80
42227;DHT22;27892;52.378;13.122;2023-05-07T00:26:45;12.90;73.10
42227;DHT22;27892;52.378;13.122;2023-05-07T00:29:10;13.00;74.00
42227;DHT22;27892;52.378;13.122;2023-05-07T00:31:36;13.10;73.80
42227;DHT22;27892;52.378;13.122;2023-05-07T00:34:02;13.00;72.10
42227;DHT22;27892;52.378;13.122;2023-05-07T00:36:27;13.00;73.20
42227;DHT22;27892;52.378;13.122;2023-05-07T00:38:54;13.00;73.10
42227;DHT22;27892;52.378;13.122;2023-05-07T00:41:20;12.90;72.70
42227;DHT22;27892;52.378;13.122;2023-05-07T00:43:46;12.90;72.60
42227;DHT22;27892;52.378;13.122;2023-05-07T00:46:13;13.00;73.00
42227;DHT22;27892;52.378;13.122;2023-05-07T00:48:39;13.00;72.70
42227;DHT22;27892;52.378;13.122;2023-05-07T00:51:05;13.00;72.60
42227;DHT22;27892;52.378;13.122;2023-05-07T00:53:31;13.00;73.00
42227;DHT22;27892;52.378;13.122;2023-05-07T00:55:57;13.00;72.70
42227;DHT22;27892;52.378;13.122;2023-05-07T00:58:23;13.10;73.00
42227;DHT22;27892;52.378;13.122;2023-05-07T01:00:49;13.10;73.60
42227;DHT22;27892;52.378;13.122;2023-05-07T01:03:15;13.10;73.00
42227;DHT22;27892;52.378;13.122;2023-05-07T01:05:42;13.10;72.30
42227;DHT22;27892;52.378;13.122;2023-05-07T01:08:08;13.10;72.30
42227;DHT22;27892;52.378;13.122;2023-05-07T01:10:34;13.10;72.60
42227;DHT22;27892;52.378;13.122;2023-05-07T01:12:59;13.10;72.60
42227;DHT22;27892;52.378;13.122;2023-05-07T01:15:26;13.10;72.10
42227;DHT22;27892;52.378;13.122;2023-05-07T01:17:51;13.00;72.30
42227;DHT22;27892;52.378;13.122;2023-05-07T01:20:18;12.90;72.80
42227;DHT22;27892;52.378;13.122;2023-05-07T01:22:45;12.90;72.60
42227;DHT22;27892;52.378;13.122;2023-05-07T01:25:11;12.90;72.90
42227;DHT22;27892;52.378;13.122;2023-05-07T01:27:37;12.80;73.60
42227;DHT22;27892;52.378;13.122;2023-05-07T01:30:06;12.90;72.80
42227;DHT22;27892;52.378;13.122;2023-05-07T01:32:42;12.90;72.80
42227;DHT22;27892;52.378;13.122;2023-05-07T01:35:11;12.90;73.00
42227;DHT22;27892;52.378;13.122;2023-05-07T01:37:38;13.00;72.80
42227;DHT22;27892;52.378;13.122;2023-05-07T01:40:05;13.10;72.30
42227;DHT22;27892;52.378;13.122;2023-05-07T01:42:31;13.00;71.60
42227;DHT22;27892;52.378;13.122;2023-05-07T01:44:57;13.00;72.30
42227;DHT22;27892;52.378;13.122;2023-05-07T01:47:23;13.00;72.00
42227;DHT22;27892;52.378;13.122;2023-05-07T01:49:50;13.00;71.90
42227;DHT22;27892;52.378;13.122;2023-05-07T01:52:16;13.10;72.40
42227;DHT22;27892;52.378;13.122;2023-05-07T01:54:41;13.10;72.00
42227;DHT22;27892;52.378;13.122;2023-05-07T01:57:08;13.10;71.30
42227;DHT22;27892;52.378;13.122;2023-05-07T01:59:33;13.10;72.40
42227;DHT22;27892;52.378;13.122;2023-05-07T02:01:59;13.00;71.20
42227;DHT22;27892;52.378;13.122;2023-05-07T02:04:26;13.20;71.60
42227;DHT22;27892;52.378;13.122;2023-05-07T02:06:51;13.20;71.30
42227;DHT22;27892;52.378;13.122;2023-05-07T02:09:18;13.20;71.30
42227;DHT22;27892;52.378;13.122;2023-05-07T02:11:44;13.20;70.80
42227;DHT22;27892;52.378;13.122;2023-05-07T02:14:09;13.20;70.70
42227;DHT22;27892;52.378;13.122;2023-05-07T02:16:35;13.20;70.80
42227;DHT22;27892;52.378;13.122;2023-05-07T02:19:01;13.20;71.00
42227;DHT22;27892;52.378;13.122;2023-05-07T02:21:27;13.30;70.90
42227;DHT22;27892;52.378;13.122;2023-05-07T02:23:53;13.30;70.60
42227;DHT22;27892;52.378;13.122;2023-05-07T02:26:19;13.30;70.30
42227;DHT22;27892;52.378;13.122;2023-05-07T02:28:45;13.20;70.30
42227;DHT22;27892;52.378;13.122;2023-05-07T02:31:10;13.30;70.80
42227;DHT22;27892;52.378;13.122;2023-05-07T02:33:36;13.30;70.60
42227;DHT22;27892;52.378;13.122;2023-05-07T02:36:09;13.20;70.40
42227;DHT22;27892;52.378;13.122;2023-05-07T02:38:35;13.10;70.60
42227;DHT22;27892;52.378;13.122;2023-05-07T02:41:01;13.10;70.70
42227;DHT22;27892;52.378;13.122;2023-05-07T02:43:26;13.20;70.70
42227;DHT22;27892;52.378;13.122;2023-05-07T02:46:06;13.20;70.20
42227;DHT22;27892;52.378;13.122;2023-05-07T02:48:32;13.10;70.20
42227;DHT22;27892;52.378;13.122;2023-05-07T02:50:58;13.10;70.40
42227;DHT22;27892;52.378;13.122;2023-05-07T02:53:25;13.10;70.00
42227;DHT22;27892;52.378;13.122;2023-05-07T02:55:53;12.90;70.00
42227;DHT22;27892;52.378;13.122;2023-05-07T02:58:18;13.00;70.20
42227;DHT22;27892;52.378;13.122;2023-05-07T03:00:44;13.00;70.00
42227;DHT22;27892;52.378;13.122;2023-05-07T03:03:10;13.00;69.50
42227;DHT22;27892;52.378;13.122;2023-05-07T03:05:36;12.90;69.30
42227;DHT22;27892;52.378;13.122;2023-05-07T03:08:02;12.90;68.50
42227;DHT22;27892;52.378;13.122;2023-05-07T03:10:28;12.60;68.10
42227;DHT22;27892;52.378;13.122;2023-05-07T03:12:53;12.50;69.30
42227;DHT22;27892;52.378;13.122;2023-05-07T03:15:19;12.60;69.20
42227;DHT22;27892;52.378;13.122;2023-05-07T03:17:45;12.70;69.00
42227;DHT22;27892;52.378;13.122;2023-05-07T03:20:11;12.90;69.20
42227;DHT22;27892;52.378;13.122;2023-05-07T03:22:36;12.90;68.60
42227;DHT22;27892;52.378;13.122;2023-05-07T03:25:02;12.90;68.30
42227;DHT22;27892;52.378;13.122;2023-05-07T03:27:28;13.00;68.90
42227;DHT22;27892;52.378;13.122;2023-05-07T03:29:53;13.00;68.40
42227;DHT22;27892;52.378;13.122;2023-05-07T03:32:19;12.80;68.80
42227;DHT22;27892;52.378;13.122;2023-05-07T03:34:45;12.90;69.40
42227;DHT22;27892;52.378;13.122;2023-05-07T03:37:10;12.90;70.10
42227;DHT22;27892;52.378;13.122;2023-05-07T03:39:36;13.00;69.20
42227;DHT22;27892;52.378;13.122;2023-05-07T03:42:02;13.10;69.30
42227;DHT22;27892;52.378;13.122;2023-05-07T03:44:28;13.00;68.50
42227;DHT22;27892;52.378;13.122;2023-05-07T03:46:54;12.90;68.90
42227;DHT22;27892;52.378;13.122;2023-05-07T03:49:19;12.90;68.60
42227;DHT22;27892;52.378;13.122;2023-05-07T03:51:45;12.70;67.90
42227;DHT22;27892;52.378;13.122;2023-05-07T03:54:10;12.70;69.30
42227;DHT22;27892;52.378;13.122;2023-05-07T03:56:36;12.70;68.60
42227;DHT22;27892;52.378;13.122;2023-05-07T03:59:02;12.50;68.50
42227;DHT22;27892;52.378;13.122;2023-05-07T04:01:28;12.60;69.10
42227;DHT22;27892;52.378;13.122;2023-05-07T04:03:53;12.70;69.40
42227;DHT22;27892;52.378;13.122;2023-05-07T04:06:19;12.70;68.90
42227;DHT22;27892;52.378;13.122;2023-05-07T04:08:45;12.60;69.20
42227;DHT22;27892;52.378;13.122;2023-05-07T04:11:10;12.70;69.00
42227;DHT22;27892;52.378;13.122;2023-05-07T04:13:36;12.70;69.50
42227;DHT22;27892;52.378;13.122;2023-05-07T04:16:03;12.80;69.50
42227;DHT22;27892;52.378;13.122;2023-05-07T04:18:29;12.80;68.90
42227;DHT22;27892;52.378;13.122;2023-05-07T04:20:55;12.90;69.10
42227;DHT22;27892;52.378;13.122;2023-05-07T04:23:21;12.90;68.90
42227;DHT22;27892;52.378;13.122;2023-05-07T04:25:46;12.90;68.20
42227;DHT22;27892;52.378;13.122;2023-05-07T04:28:12;12.80;68.80
42227;DHT22;27892;52.378;13.122;2023-05-07T04:30:38;12.70;68.00
42227;DHT22;27892;52.378;13.122;2023-05-07T04:33:04;12.30;68.60
42227;DHT22;27892;52.378;13.122;2023-05-07T04:35:30;12.40;69.50
42227;DHT22;27892;52.378;13.122;2023-05-07T04:37:56;12.40;69.60
42227;DHT22;27892;52.378;13.122;2023-05-07T04:40:21;12.50;68.90
42227;DHT22;27892;52.378;13.122;2023-05-07T04:42:47;12.50;69.40
42227;DHT22;27892;52.378;13.122;2023-05-07T04:45:13;12.60;69.00
42227;DHT22;27892;52.378;13.122;2023-05-07T04:47:38;12.70;68.50
42227;DHT22;27892;52.378;13.122;2023-05-07T04:50:06;12.60;67.60
42227;DHT22;27892;52.378;13.122;2023-05-07T04:52:31;12.50;67.20
42227;DHT22;27892;52.378;13.122;2023-05-07T04:54:59;12.60;67.90
42227;DHT22;27892;52.378;13.122;2023-05-07T04:57:25;12.60;68.10
42227;DHT22;27892;52.378;13.122;2023-05-07T04:59:52;12.70;67.90
42227;DHT22;27892;52.378;13.122;2023-05-07T05:02:17;12.50;68.10
42227;DHT22;27892;52.378;13.122;2023-05-07T05:04:43;12.30;68.80
42227;DHT22;27892;52.378;13.122;2023-05-07T05:07:08;12.20;68.70
42227;DHT22;27892;52.378;13.122;2023-05-07T05:09:34;12.30;68.90
42227;DHT22;27892;52.378;13.122;2023-05-07T05:12:00;12.50;68.60
42227;DHT22;27892;52.378;13.122;2023-05-07T05:14:25;12.20;68.90
42227;DHT22;27892;52.378;13.122;2023-05-07T05:16:51;12.20;69.20
42227;DHT22;27892;52.378;13.122;2023-05-07T05:19:19;12.00;69.90
42227;DHT22;27892;52.378;13.122;2023-05-07T05:21:45;12.00;70.30
42227;DHT22;27892;52.378;13.122;2023-05-07T05:24:11;12.30;70.00
42227;DHT22;27892;52.378;13.122;2023-05-07T05:26:36;12.60;69.70
42227;DHT22;27892;52.378;13.122;2023-05-07T05:29:02;12.60;68.20
42227;DHT22;27892;52.378;13.122;2023-05-07T05:31:28;12.60;68.70
42227;DHT22;27892;52.378;13.122;2023-05-07T05:33:53;12.70;68.60
42227;DHT22;27892;52.378;13.122;2023-05-07T05:36:19;12.80;68.80
42227;DHT22;27892;52.378;13.122;2023-05-07T05:38:44;12.60;67.20
42227;DHT22;27892;52.378;13.122;2023-05-07T05:41:10;12.70;67.50
42227;DHT22;27892;52.378;13.122;2023-05-07T05:43:36;12.20;68.00
42227;DHT22;27892;52.378;13.122;2023-05-07T05:46:02;12.40;68.80
42227;DHT22;27892;52.378;13.122;2023-05-07T05:48:29;12.70;68.40
42227;DHT22;27892;52.378;13.122;2023-05-07T05:50:55;12.70;66.90
42227;DHT22;27892;52.378;13.122;2023-05-07T05:53:21;12.80;67.40
42227;DHT22;27892;52.378;13.122;2023-05-07T05:55:47;12.90;67.30
42227;DHT22;27892;52.378;13.122;2023-05-07T05:58:12;12.90;66.60
42227;DHT22;27892;52.378;13.122;2023-05-07T06:00:38;12.90;66.70
42227;DHT22;27892;52.378;13.122;2023-05-07T06:03:04;12.90;66.20
42227;DHT22;27892;52.378;13.122;2023-05-07T06:05:29;12.80;66.20
42227;DHT22;27892;52.378;13.122;2023-05-07T06:07:55;12.80;66.90
42227;DHT22;27892;52.378;13.122;2023-05-07T06:10:21;12.90;67.10
42227;DHT22;27892;52.378;13.122;2023-05-07T06:12:47;13.20;67.20
42227;DHT22;27892;52.378;13.122;2023-05-07T06:15:12;13.30;65.80
42227;DHT22;27892;52.378;13.122;2023-05-07T06:17:38;13.40;65.60
42227;DHT22;27892;52.378;13.122;2023-05-07T06:20:04;13.70;65.30
42227;DHT22;27892;52.378;13.122;2023-05-07T06:22:30;13.40;64.10
42227;DHT22;27892;52.378;13.122;2023-05-07T06:24:56;13.50;65.00
42227;DHT22;27892;52.378;13.122;2023-05-07T06:27:21;13.50;63.60
42227;DHT22;27892;52.378;13.122;2023-05-07T06:29:48;13.50;64.60
42227;DHT22;27892;52.378;13.122;2023-05-07T06:32:14;13.90;65.20
42227;DHT22;27892;52.378;13.122;2023-05-07T06:34:40;16.00;61.60
42227;DHT22;27892;52.378;13.122;2023-05-07T06:37:07;17.80;59.60
42227;DHT22;27892;52.378;13.122;2023-05-07T06:39:32;19.10;54.60
42227;DHT22;27892;52.378;13.122;2023-05-07T06:42:00;18.60;52.50
42227;DHT22;27892;52.378;13.122;2023-05-07T06:44:25;17.40;50.90
42227;DHT22;27892;52.378;13.122;2023-05-07T06:46:51;16.80;52.60
42227;DHT22;27892;52.378;13.122;2023-05-07T06:49:17;15.80;53.40
42227;DHT22;27892;52.378;13.122;2023-05-07T06:51:43;15.60;55.00
42227;DHT22;27892;52.378;13.122;2023-05-07T06:54:08;15.00;56.90
42227;DHT22;27892;52.378;13.122;2023-05-07T06:56:34;15.20;57.30
42227;DHT22;27892;52.378;13.122;2023-05-07T06:59:02;15.60;58.60
42227;DHT22;27892;52.378;13.122;2023-05-07T07:01:28;16.80;56.00
42227;DHT22;27892;52.378;13.122;2023-05-07T07:03:54;16.80;53.80
42227;DHT22;27892;52.378;13.122;2023-05-07T07:06:20;16.40;53.40
42227;DHT22;27892;52.378;13.122;2023-05-07T07:08:46;15.90;54.30
42227;DHT22;27892;52.378;13.122;2023-05-07T07:11:11;15.60;55.00
42227;DHT22;27892;52.378;13.122;2023-05-07T07:13:37;15.10;56.30
42227;DHT22;27892;52.378;13.122;2023-05-07T07:16:03;14.90;56.10
42227;DHT22;27892;52.378;13.122;2023-05-07T07:18:29;14.80;57.00
42227;DHT22;27892;52.378;13.122;2023-05-07T07:20:54;14.40;57.00
42227;DHT22;27892;52.378;13.122;2023-05-07T07:23:20;14.80;58.60
42227;DHT22;27892;52.378;13.122;2023-05-07T07:25:46;15.10;57.70
42227;DHT22;27892;52.378;13.122;2023-05-07T07:28:12;15.30;57.70
42227;DHT22;27892;52.378;13.122;2023-05-07T07:30:38;15.40;57.10
42227;DHT22;27892;52.378;13.122;2023-05-07T07:33:04;15.10;56.70
42227;DHT22;27892;52.378;13.122;2023-05-07T07:35:31;15.00;57.90
42227;DHT22;27892;52.378;13.122;2023-05-07T07:37:57;15.10;57.80
42227;DHT22;27892;52.378;13.122;2023-05-07T07:40:23;15.10;58.50
42227;DHT22;27892;52.378;13.122;2023-05-07T07:42:48;15.10;57.80
42227;DHT22;27892;52.378;13.122;2023-05-07T07:45:14;15.00;57.30
42227;DHT22;27892;52.378;13.122;2023-05-07T07:47:40;14.60;57.60
42227;DHT22;27892;52.378;13.122;2023-05-07T07:50:06;14.70;57.40
42227;DHT22;27892;52.378;13.122;2023-05-07T07:52:33;14.70;58.50
42227;DHT22;27892;52.378;13.122;2023-05-07T07:54:58;14.80;58.30
42227;DHT22;27892;52.378;13.122;2023-05-07T07:57:24;14.70;57.80
42227;DHT22;27892;52.378;13.122;2023-05-07T07:59:50;15.00;58.30
42227;DHT22;27892;52.378;13.122;2023-05-07T08:02:16;15.20;57.00
42227;DHT22;27892;52.378;13.122;2023-05-07T08:04:42;15.20;57.20
42227;DHT22;27892;52.378;13.122;2023-05-07T08:07:10;15.80;58.20
42227;DHT22;27892;52.378;13.122;2023-05-07T08:09:39;16.00;55.00
42227;DHT22;27892;52.378;13.122;2023-05-07T08:12:06;15.70;54.70
42227;DHT22;27892;52.378;13.122;2023-05-07T08:14:32;15.60;55.20
42227;DHT22;27892;52.378;13.122;2023-05-07T08:16:58;15.30;54.90
42227;DHT22;27892;52.378;13.122;2023-05-07T08:19:24;15.20;56.10
42227;DHT22;27892;52.378;13.122;2023-05-07T08:21:50;15.40;56.10
42227;DHT22;27892;52.378;13.122;2023-05-07T08:24:16;15.40;55.70
42227;DHT22;27892;52.378;13.122;2023-05-07T08:26:42;15.90;56.70
42227;DHT22;27892;52.378;13.122;2023-05-07T08:29:08;15.60;54.20
42227;DHT22;27892;52.378;13.122;2023-05-07T08:31:34;15.90;55.80
42227;DHT22;27892;52.378;13.122;2023-05-07T08:33:59;16.30;54.50
42227;DHT22;27892;52.378;13.122;2023-05-07T08:36:25;16.80;54.60
42227;DHT22;27892;52.378;13.122;2023-05-07T08:38:52;17.70;54.70
42227;DHT22;27892;52.378;13.122;2023-05-07T08:41:18;17.90;52.30
42227;DHT22;27892;52.378;13.122;2023-05-07T08:43:50;18.30;53.00
42227;DHT22;27892;52.378;13.122;2023-05-07T08:46:21;18.70;50.70
42227;DHT22;27892;52.378;13.122;2023-05-07T08:48:51;18.80;51.10
42227;DHT22;27892;52.378;13.122;2023-05-07T08:51:20;18.80;48.30
42227;DHT22;27892;52.378;13.122;2023-05-07T08:53:48;18.90;50.30
42227;DHT22;27892;52.378;13.122;2023-05-07T08:56:15;19.00;48.90
42227;DHT22;27892;52.378;13.122;2023-05-07T08:58:44;19.30;48.60
42227;DHT22;27892;52.378;13.122;2023-05-07T09:01:13;19.70;47.50
42227;DHT22;27892;52.378;13.122;2023-05-07T09:03:40;19.40;47.40
42227;DHT22;27892;52.378;13.122;2023-05-07T09:06:05;19.30;47.20
42227;DHT22;27892;52.378;13.122;2023-05-07T09:08:33;19.10;47.40
42227;DHT22;27892;52.378;13.122;2023-05-07T09:10:59;18.60;46.80
42227;DHT22;27892;52.378;13.122;2023-05-07T09:13:26;18.10;46.90
42227;DHT22;27892;52.378;13.122;2023-05-07T09:15:52;18.20;49.10
42227;DHT22;27892;52.378;13.122;2023-05-07T09:18:18;18.50;49.10
42227;DHT22;27892;52.378;13.122;2023-05-07T09:20:44;18.90;49.60
42227;DHT22;27892;52.378;13.122;2023-05-07T09:23:09;18.90;47.80
42227;DHT22;27892;52.378;13.122;2023-05-07T09:25:36;18.70;47.30
42227;DHT22;27892;52.378;13.122;2023-05-07T09:28:03;18.60;48.30
42227;DHT22;27892;52.378;13.122;2023-05-07T09:30:30;18.40;48.00
42227;DHT22;27892;52.378;13.122;2023-05-07T09:32:59;18.20;48.50
42227;DHT22;27892;52.378;13.122;2023-05-07T09:35:26;17.90;48.60
42227;DHT22;27892;52.378;13.122;2023-05-07T09:37:56;18.00;49.50
42227;DHT22;27892;52.378;13.122;2023-05-07T09:40:24;18.00;49.20
42227;DHT22;27892;52.378;13.122;2023-05-07T09:42:50;18.00;49.50
42227;DHT22;27892;52.378;13.122;2023-05-07T09:47:49;18.10;49.20
42227;DHT22;27892;52.378;13.122;2023-05-07T09:50:19;18.20;48.60
42227;DHT22;27892;52.378;13.122;2023-05-07T09:52:47;17.50;48.90
42227;DHT22;27892;52.378;13.122;2023-05-07T09:55:13;17.50;49.90
42227;DHT22;27892;52.378;13.122;2023-05-07T09:57:40;17.30;49.10
42227;DHT22;27892;52.378;13.122;2023-05-07T10:00:07;17.70;50.20
42227;DHT22;27892;52.378;13.122;2023-05-07T10:02:35;18.20;48.40
42227;DHT22;27892;52.378;13.122;2023-05-07T10:05:02;18.40;48.00
42227;DHT22;27892;52.378;13.122;2023-05-07T10:07:29;18.60;48.50
42227;DHT22;27892;52.378;13.122;2023-05-07T10:09:55;18.50;47.90
42227;DHT22;27892;52.378;13.122;2023-05-07T10:12:22;18.60;47.70
42227;DHT22;27892;52.378;13.122;2023-05-07T10:14:48;18.70;47.30
42227;DHT22;27892;52.378;13.122;2023-05-07T10:17:16;18.60;47.20
42227;DHT22;27892;52.378;13.122;2023-05-07T10:19:44;18.30;47.80
42227;DHT22;27892;52.378;13.122;2023-05-07T10:22:11;18.40;47.20
42227;DHT22;27892;52.378;13.122;2023-05-07T10:24:38;18.20;46.70
42227;DHT22;27892;52.378;13.122;2023-05-07T10:27:08;17.80;46.90
42227;DHT22;27892;52.378;13.122;2023-05-07T10:32:30;18.40;46.70
42227;DHT22;27892;52.378;13.122;2023-05-07T10:35:01;18.90;47.30
42227;DHT22;27892;52.378;13.122;2023-05-07T10:37:28;19.00;45.90
42227;DHT22;27892;52.378;13.122;2023-05-07T10:39:54;19.50;45.70
42227;DHT22;27892;52.378;13.122;2023-05-07T10:42:20;19.70;43.50
42227;DHT22;27892;52.378;13.122;2023-05-07T10:44:46;20.30;43.10
42227;DHT22;27892;52.378;13.122;2023-05-07T10:47:14;21.40;44.50
42227;DHT22;27892;52.378;13.122;2023-05-07T10:52:23;18.90;43.50
42227;DHT22;27892;52.378;13.122;2023-05-07T10:57:45;17.90;46.60
42227;DHT22;27892;52.378;13.122;2023-05-07T11:03:06;18.00;46.70
42227;DHT22;27892;52.378;13.122;2023-05-07T11:05:33;18.30;46.10
42227;DHT22;27892;52.378;13.122;2023-05-07T11:08:02;18.50;46.00
42227;DHT22;27892;52.378;13.122;2023-05-07T11:11:07;18.60;46.00
42227;DHT22;27892;52.378;13.122;2023-05-07T11:13:46;18.80;45.40
42227;DHT22;27892;52.378;13.122;2023-05-07T11:16:23;18.80;47.30
42227;DHT22;27892;52.378;13.122;2023-05-07T11:18:53;19.50;47.40
42227;DHT22;27892;52.378;13.122;2023-05-07T11:21:35;19.60;44.00
42227;DHT22;27892;52.378;13.122;2023-05-07T11:24:02;19.40;44.00
42227;DHT22;27892;52.378;13.122;2023-05-07T11:26:30;18.80;44.20
42227;DHT22;27892;52.378;13.122;2023-05-07T11:28:56;18.60;45.00
42227;DHT22;27892;52.378;13.122;2023-05-07T11:31:27;18.20;44.90
42227;DHT22;27892;52.378;13.122;2023-05-07T11:33:54;18.00;45.10
42227;DHT22;27892;52.378;13.122;2023-05-07T11:36:22;18.30;46.00
42227;DHT22;27892;52.378;13.122;2023-05-07T11:38:48;19.00;45.60
42227;DHT22;27892;52.378;13.122;2023-05-07T11:41:16;19.20;43.20
42227;DHT22;27892;52.378;13.122;2023-05-07T11:43:56;19.20;43.70
42227;DHT22;27892;52.378;13.122;2023-05-07T11:46:22;19.00;43.70
42227;DHT22;27892;52.378;13.122;2023-05-07T11:48:48;19.00;44.50
42227;DHT22;27892;52.378;13.122;2023-05-07T11:51:19;18.90;44.60
42227;DHT22;27892;52.378;13.122;2023-05-07T11:53:45;19.00;43.60
42227;DHT22;27892;52.378;13.122;2023-05-07T11:56:13;19.20;44.00
42227;DHT22;27892;52.378;13.122;2023-05-07T11:58:40;18.70;43.90
42227;DHT22;27892;52.378;13.122;2023-05-07T12:01:08;18.70;43.30
42227;DHT22;27892;52.378;13.122;2023-05-07T12:03:35;18.90;45.30
42227;DHT22;27892;52.378;13.122;2023-05-07T12:06:02;18.80;44.10
42227;DHT22;27892;52.378;13.122;2023-05-07T12:08:30;19.00;45.30
42227;DHT22;27892;52.378;13.122;2023-05-07T12:10:56;19.40;43.80
42227;DHT22;27892;52.378;13.122;2023-05-07T12:13:25;19.40;43.20
42227;DHT22;27892;52.378;13.122;2023-05-07T12:15:55;19.50;43.90
42227;DHT22;27892;52.378;13.122;2023-05-07T12:18:22;19.50;43.00
42227;DHT22;27892;52.378;13.122;2023-05-07T12:20:48;19.40;42.90
42227;DHT22;27892;52.378;13.122;2023-05-07T12:23:15;19.00;42.40
42227;DHT22;27892;52.378;13.122;2023-05-07T12:25:42;18.80;43.30
42227;DHT22;27892;52.378;13.122;2023-05-07T12:28:16;18.90;43.80
42227;DHT22;27892;52.378;13.122;2023-05-07T12:30:44;18.80;43.70
42227;DHT22;27892;52.378;13.122;2023-05-07T12:33:10;18.60;44.00
42227;DHT22;27892;52.378;13.122;2023-05-07T12:35:40;18.40;45.00
42227;DHT22;27892;52.378;13.122;2023-05-07T12:38:17;18.90;45.10
42227;DHT22;27892;52.378;13.122;2023-05-07T12:40:45;19.40;44.40
42227;DHT22;27892;52.378;13.122;2023-05-07T12:43:27;19.80;43.90
42227;DHT22;27892;52.378;13.122;2023-05-07T12:45:59;19.80;42.40
42227;DHT22;27892;52.378;13.122;2023-05-07T12:48:25;19.60;42.60
42227;DHT22;27892;52.378;13.122;2023-05-07T12:50:56;18.90;41.10
42227;DHT22;27892;52.378;13.122;2023-05-07T12:53:24;19.10;42.10
42227;DHT22;27892;52.378;13.122;2023-05-07T12:55:52;19.20;41.90
42227;DHT22;27892;52.378;13.122;2023-05-07T12:58:27;19.00;41.30
42227;DHT22;27892;52.378;13.122;2023-05-07T13:00:54;18.80;41.60
42227;DHT22;27892;52.378;13.122;2023-05-07T13:03:27;19.10;41.90
42227;DHT22;27892;52.378;13.122;2023-05-07T13:05:54;18.80;42.50
42227;DHT22;27892;52.378;13.122;2023-05-07T13:08:35;19.10;42.30
42227;DHT22;27892;52.378;13.122;2023-05-07T13:11:03;19.30;41.60
42227;DHT22;27892;52.378;13.122;2023-05-07T13:13:30;19.40;41.00
42227;DHT22;27892;52.378;13.122;2023-05-07T13:15:56;19.30;42.10
42227;DHT22;27892;52.378;13.122;2023-05-07T13:18:22;19.50;41.80
42227;DHT22;27892;52.378;13.122;2023-05-07T13:20:47;19.70;42.30
42227;DHT22;27892;52.378;13.122;2023-05-07T13:23:13;20.10;41.60
42227;DHT22;27892;52.378;13.122;2023-05-07T13:25:39;20.20;41.40
42227;DHT22;27892;52.378;13.122;2023-05-07T13:28:05;19.60;40.00
42227;DHT22;27892;52.378;13.122;2023-05-07T13:30:30;19.40;41.20
42227;DHT22;27892;52.378;13.122;2023-05-07T13:32:56;19.80;42.20
42227;DHT22;27892;52.378;13.122;2023-05-07T13:35:22;20.30;41.10
42227;DHT22;27892;52.378;13.122;2023-05-07T13:37:47;20.60;40.00
42227;DHT22;27892;52.378;13.122;2023-05-07T13:40:14;20.70;41.30
42227;DHT22;27892;52.378;13.122;2023-05-07T13:42:40;21.80;40.60
42227;DHT22;27892;52.378;13.122;2023-05-07T13:45:08;22.50;36.80
42227;DHT22;27892;52.378;13.122;2023-05-07T13:47:34;23.00;37.00
42227;DHT22;27892;52.378;13.122;2023-05-07T13:50:00;22.40;35.40
42227;DHT22;27892;52.378;13.122;2023-05-07T13:52:26;21.50;35.30
42227;DHT22;27892;52.378;13.122;2023-05-07T13:54:51;21.60;36.40
42227;DHT22;27892;52.378;13.122;2023-05-07T13:57:18;22.10;36.20
42227;DHT22;27892;52.378;13.122;2023-05-07T13:59:44;22.50;36.30
42227;DHT22;27892;52.378;13.122;2023-05-07T14:02:09;23.10;36.20
42227;DHT22;27892;52.378;13.122;2023-05-07T14:04:37;22.90;34.10
42227;DHT22;27892;52.378;13.122;2023-05-07T14:07:03;22.10;34.80
42227;DHT22;27892;52.378;13.122;2023-05-07T14:09:28;21.10;36.00
42227;DHT22;27892;52.378;13.122;2023-05-07T14:11:54;21.00;37.90
42227;DHT22;27892;52.378;13.122;2023-05-07T14:14:20;21.10;38.50
42227;DHT22;27892;52.378;13.122;2023-05-07T14:16:45;21.60;37.80
42227;DHT22;27892;52.378;13.122;2023-05-07T14:19:12;20.80;37.10
42227;DHT22;27892;52.378;13.122;2023-05-07T14:21:37;20.70;36.60
42227;DHT22;27892;52.378;13.122;2023-05-07T14:24:05;20.20;37.70
42227;DHT22;27892;52.378;13.122;2023-05-07T14:26:31;19.90;37.80
42227;DHT22;27892;52.378;13.122;2023-05-07T14:28:57;19.90;39.00
42227;DHT22;27892;52.378;13.122;2023-05-07T14:31:24;19.90;38.40
42227;DHT22;27892;52.378;13.122;2023-05-07T14:33:49;19.80;38.90
42227;DHT22;27892;52.378;13.122;2023-05-07T14:36:16;19.70;39.60
42227;DHT22;27892;52.378;13.122;2023-05-07T14:38:42;19.90;39.80
42227;DHT22;27892;52.378;13.122;2023-05-07T14:41:08;20.00;39.30
42227;DHT22;27892;52.378;13.122;2023-05-07T14:43:34;20.10;38.80
42227;DHT22;27892;52.378;13.122;2023-05-07T14:45:59;19.90;39.00
42227;DHT22;27892;52.378;13.122;2023-05-07T14:48:25;19.20;39.60
42227;DHT22;27892;52.378;13.122;2023-05-07T14:50:50;19.40;40.40
42227;DHT22;27892;52.378;13.122;2023-05-07T14:53:16;19.10;40.40
42227;DHT22;27892;52.378;13.122;2023-05-07T14:55:42;19.00;41.30
42227;DHT22;27892;52.378;13.122;2023-05-07T14:58:08;18.60;41.40
42227;DHT22;27892;52.378;13.122;2023-05-07T15:00:34;18.80;41.40
42227;DHT22;27892;52.378;13.122;2023-05-07T15:03:17;18.90;41.50
42227;DHT22;27892;52.378;13.122;2023-05-07T15:05:43;19.10;41.90
42227;DHT22;27892;52.378;13.122;2023-05-07T15:08:09;18.90;40.40
42227;DHT22;27892;52.378;13.122;2023-05-07T15:10:36;19.00;41.10
42227;DHT22;27892;52.378;13.122;2023-05-07T15:13:06;19.00;41.10
42227;DHT22;27892;52.378;13.122;2023-05-07T15:15:32;19.40;41.40
42227;DHT22;27892;52.378;13.122;2023-05-07T15:17:58;19.10;40.70
42227;DHT22;27892;52.378;13.122;2023-05-07T15:20:25;19.10;41.00
42227;DHT22;27892;52.378;13.122;2023-05-07T15:22:51;19.20;41.50
42227;DHT22;27892;52.378;13.122;2023-05-07T15:25:17;19.20;40.90
42227;DHT22;27892;52.378;13.122;2023-05-07T15:27:42;19.20;41.20